Terminal Aerodrome Forecast
Issued by NWS

Current Version | Previous Version | Text Only | Print | Product List | Glossary On
Versions: 1 2 3 4 5 6 7 8 9 10 11 12 13 14 15 16 17 18 19
000
FTAK31 PAJN 191400 AAA
TAFAJN
TAF AMD
PAJN 191402Z 1914/2012 11012G25KT 6SM -RA BR SCT010 OVC040
      TEMPO 1914/1917 4SM RA BR BKN010 OVC030
     FM191700 12015G25KT 5SM -RA BR SCT015 OVC030
     FM192000 12012KT 6SM -RA BR SCT015 OVC040
     FM200100 12012KT 6SM -SHRA SCT015 OVC050
     FM200600 11008KT 6SM BR VCSH SCT020 OVC040=

USA.gov is the U.S. government's official web portal to all federal, state and local government web resources and services.